Time;durP1;ratioP1;P1;durP2;ratioP2;P2;SDS_P1;SDS_P2;PMS_P1;PMS_P2;Temp;Humidity;BMP_temperature;BMP_pressure;BME280_temperature;BME280_humidity;BME280_pressure;Samples;Min_cycle;Max_cycle;Signal;HPM_P1;HPM_P2
2023/12/18 00:02:54;;;;;;;5.90;3.87;;;9.00;99.90;;;;;;10332680;28;20284;-65
2023/12/18 00:07:58;;;;;;;5.20;3.23;;;9.00;99.90;;;;;;10331737;28;20209;-66
2023/12/18 00:13:01;;;;;;;7.43;3.50;;;8.90;99.90;;;;;;10332046;28;20593;-67
2023/12/18 00:18:07;;;;;;;8.17;3.60;;;8.90;99.20;;;;;;10325950;28;20256;-67
2023/12/18 00:23:10;;;;;;;5.90;4.03;;;8.80;99.70;;;;;;10330564;28;20630;-66
2023/12/18 00:28:14;;;;;;;5.67;3.77;;;8.80;99.10;;;;;;10325353;28;20327;-66
2023/12/18 00:33:19;;;;;;;9.53;4.00;;;8.70;98.70;;;;;;10322071;28;20217;-63
2023/12/18 00:38:22;;;;;;;5.90;3.80;;;8.70;99.10;;;;;;10320234;28;20213;-65
2023/12/18 00:43:26;;;;;;;6.43;3.93;;;8.70;98.60;;;;;;10318077;28;20229;-64
2023/12/18 00:48:31;;;;;;;7.07;3.80;;;8.60;99.00;;;;;;10320589;28;20197;-64
2023/12/18 00:53:35;;;;;;;9.27;4.33;;;8.60;98.40;;;;;;10315443;28;20661;-65
2023/12/18 00:58:38;;;;;;;9.20;3.87;;;8.50;98.40;;;;;;10324589;28;20634;-65
2023/12/18 01:03:43;;;;;;;8.67;4.23;;;8.50;98.70;;;;;;10319630;28;20256;-65
2023/12/18 01:08:47;;;;;;;6.80;4.30;;;8.40;97.20;;;;;;10318765;28;20263;-64
2023/12/18 01:13:50;;;;;;;7.90;4.47;;;8.40;98.30;;;;;;10324447;28;20217;-64
2023/12/18 01:18:55;;;;;;;6.90;4.50;;;8.30;97.60;;;;;;10321649;28;20197;-66
2023/12/18 01:24:00;;;;;;;6.87;4.30;;;8.30;97.80;;;;;;10324258;28;20656;-66
2023/12/18 01:29:03;;;;;;;7.63;4.20;;;8.30;97.30;;;;;;10323493;28;20235;-65
2023/12/18 01:34:08;;;;;;;8.67;4.90;;;8.20;96.70;;;;;;10323208;28;20232;-66
2023/12/18 01:39:13;;;;;;;10.67;4.90;;;8.20;97.40;;;;;;10320569;28;20260;-67
2023/12/18 01:44:17;;;;;;;10.80;5.17;;;8.10;97.50;;;;;;10322361;28;20288;-65
2023/12/18 01:49:22;;;;;;;6.57;4.83;;;8.10;97.40;;;;;;10321018;28;20206;-66
2023/12/18 01:54:27;;;;;;;8.93;4.70;;;8.20;97.50;;;;;;10319622;28;20240;-64
2023/12/18 01:59:33;;;;;;;10.97;4.87;;;8.20;97.20;;;;;;10329065;28;20217;-65
2023/12/18 02:04:40;;;;;;;10.10;5.30;;;8.20;97.30;;;;;;10330767;28;20233;-64
2023/12/18 02:09:44;;;;;;;8.23;5.17;;;8.30;97.80;;;;;;10330401;28;20581;-64
2023/12/18 02:14:47;;;;;;;8.13;4.73;;;8.20;96.50;;;;;;10326041;28;20272;-66
2023/12/18 02:20:05;;;;;;;9.60;5.07;;;8.20;96.80;;;;;;10328064;28;20201;-63
2023/12/18 02:25:10;;;;;;;14.17;6.17;;;8.20;95.90;;;;;;10329236;28;20262;-64
2023/12/18 02:30:15;;;;;;;11.43;6.90;;;8.20;96.30;;;;;;10327681;28;20217;-66
2023/12/18 02:35:19;;;;;;;9.80;6.50;;;8.20;96.60;;;;;;10327005;28;20230;-66
2023/12/18 02:40:26;;;;;;;11.20;6.73;;;8.10;95.20;;;;;;10322435;28;20267;-65
2023/12/18 02:45:29;;;;;;;12.97;7.33;;;8.00;95.20;;;;;;10329377;28;20230;-67
2023/12/18 02:50:33;;;;;;;12.33;7.40;;;7.90;95.50;;;;;;10324723;28;20193;-66
2023/12/18 02:55:38;;;;;;;15.60;8.33;;;7.90;95.70;;;;;;10330233;28;20689;-69
2023/12/18 03:00:42;;;;;;;15.43;8.83;;;7.80;95.10;;;;;;10324587;28;20218;-65
2023/12/18 03:05:45;;;;;;;15.27;8.90;;;7.80;95.20;;;;;;10324834;28;20301;-66
2023/12/18 03:10:52;;;;;;;13.77;8.57;;;7.70;95.50;;;;;;10324211;28;20197;-66
2023/12/18 03:15:57;;;;;;;17.70;8.93;;;7.70;96.00;;;;;;10325974;28;20684;-65
2023/12/18 03:21:01;;;;;;;14.17;8.77;;;7.70;95.80;;;;;;10327572;28;20260;-64
2023/12/18 03:26:06;;;;;;;12.57;8.57;;;7.70;95.80;;;;;;10290557;28;20229;-62
2023/12/18 03:31:11;;;;;;;15.67;9.00;;;7.70;95.40;;;;;;10326948;28;20251;-66
2023/12/18 03:36:15;;;;;;;16.27;9.40;;;7.60;95.70;;;;;;10323336;28;20267;-65
2023/12/18 03:41:20;;;;;;;16.13;9.07;;;7.50;95.20;;;;;;10324481;28;20272;-66
2023/12/18 03:46:25;;;;;;;18.40;9.87;;;7.50;95.40;;;;;;10324837;28;20212;-63
2023/12/18 03:51:28;;;;;;;16.33;9.20;;;7.50;95.30;;;;;;10322503;28;20251;-65
2023/12/18 03:56:33;;;;;;;17.13;9.80;;;7.50;95.60;;;;;;10325237;28;20258;-64
2023/12/18 04:01:37;;;;;;;14.63;9.37;;;7.40;96.10;;;;;;10322480;28;20256;-66
2023/12/18 04:06:43;;;;;;;20.20;11.77;;;7.40;96.00;;;;;;10321452;28;20201;-66
2023/12/18 04:11:49;;;;;;;16.10;11.10;;;7.40;95.60;;;;;;10325054;28;20576;-66
2023/12/18 04:16:53;;;;;;;15.77;10.57;;;7.30;95.70;;;;;;10309208;28;20231;-67
2023/12/18 04:21:56;;;;;;;17.27;10.53;;;7.30;96.20;;;;;;10333184;28;20224;-65
2023/12/18 04:27:01;;;;;;;17.47;12.00;;;7.30;96.30;;;;;;10326776;28;20210;-66
2023/12/18 04:32:05;;;;;;;19.30;12.43;;;7.30;96.00;;;;;;10325369;28;20288;-63
2023/12/18 04:37:09;;;;;;;17.43;12.10;;;7.30;96.10;;;;;;10319004;28;20201;-63
2023/12/18 04:42:14;;;;;;;20.20;12.10;;;7.30;96.30;;;;;;10318016;28;20256;-64
2023/12/18 04:47:18;;;;;;;20.87;13.10;;;7.30;96.50;;;;;;10319737;28;20221;-66
2023/12/18 04:52:22;;;;;;;18.20;11.73;;;7.30;96.10;;;;;;10325845;28;20229;-67
2023/12/18 04:57:27;;;;;;;20.53;11.77;;;7.20;96.60;;;;;;10318270;28;20208;-67
2023/12/18 05:02:30;;;;;;;20.10;11.80;;;7.30;97.00;;;;;;10317905;28;20228;-65
2023/12/18 05:07:34;;;;;;;17.40;12.23;;;7.30;96.70;;;;;;10320041;28;20496;-65
2023/12/18 05:12:39;;;;;;;18.63;12.33;;;7.20;96.80;;;;;;10325205;28;20598;-62
2023/12/18 05:17:43;;;;;;;20.47;12.27;;;7.20;96.70;;;;;;10322862;28;20579;-61
2023/12/18 05:22:46;;;;;;;18.13;12.67;;;7.20;97.10;;;;;;10322678;28;20273;-62
2023/12/18 05:27:51;;;;;;;19.30;13.00;;;7.20;97.10;;;;;;10204489;28;20589;-61
2023/12/18 05:32:55;;;;;;;17.63;12.97;;;7.20;96.90;;;;;;10326623;28;20229;-61
2023/12/18 05:37:59;;;;;;;17.40;12.60;;;7.20;97.10;;;;;;10321330;28;20284;-61
2023/12/18 05:43:04;;;;;;;16.93;13.00;;;7.30;97.20;;;;;;10323279;28;20268;-61
2023/12/18 05:48:08;;;;;;;17.33;13.20;;;7.30;97.70;;;;;;10326365;28;20231;-59
2023/12/18 05:53:12;;;;;;;17.90;13.10;;;7.30;98.10;;;;;;10320153;28;20279;-61
2023/12/18 05:58:16;;;;;;;16.27;12.40;;;7.40;97.70;;;;;;10322367;28;20210;-62
2023/12/18 06:03:20;;;;;;;18.30;12.57;;;7.30;98.10;;;;;;10321169;28;20221;-67
2023/12/18 06:08:24;;;;;;;21.07;13.83;;;7.30;98.00;;;;;;10322080;28;20206;-62
2023/12/18 06:13:31;;;;;;;19.50;13.00;;;7.30;98.10;;;;;;10326097;28;20224;-60
2023/12/18 06:18:35;;;;;;;17.83;13.37;;;7.30;97.50;;;;;;10313350;28;20205;-60
2023/12/18 06:23:39;;;;;;;17.53;12.77;;;7.30;97.50;;;;;;10322255;28;20233;-61
2023/12/18 06:28:44;;;;;;;15.83;12.70;;;7.30;97.40;;;;;;10316663;28;20267;-61
2023/12/18 06:33:48;;;;;;;18.73;13.33;;;7.20;97.20;;;;;;10316660;28;20221;-61
2023/12/18 06:38:52;;;;;;;17.53;13.17;;;7.10;97.30;;;;;;10321109;28;20251;-60
2023/12/18 06:43:57;;;;;;;23.37;14.00;;;7.10;97.10;;;;;;10326207;28;20224;-62
2023/12/18 06:49:00;;;;;;;19.70;13.33;;;7.10;97.40;;;;;;10328560;28;20225;-62
2023/12/18 06:54:04;;;;;;;16.13;11.70;;;7.20;97.70;;;;;;10326827;28;20488;-60
2023/12/18 06:59:09;;;;;;;18.67;12.70;;;7.20;97.70;;;;;;10323751;28;20203;-61
2023/12/18 07:04:13;;;;;;;20.70;14.50;;;7.30;97.70;;;;;;10326569;28;20279;-59
2023/12/18 07:09:24;;;;;;;17.70;13.20;;;7.20;98.00;;;;;;10321929;28;20213;-61
2023/12/18 07:14:29;;;;;;;21.60;14.63;;;7.20;98.10;;;;;;10301043;28;20444;-63
2023/12/18 07:19:33;;;;;;;19.43;14.03;;;7.30;97.80;;;;;;10323046;28;20218;-62
2023/12/18 07:24:37;;;;;;;19.17;13.20;;;7.20;97.90;;;;;;10325511;28;20233;-63
2023/12/18 07:29:42;;;;;;;20.97;12.70;;;7.30;97.60;;;;;;10327894;28;20216;-62
2023/12/18 07:34:45;;;;;;;19.07;14.07;;;7.20;97.70;;;;;;10331632;28;20229;-62
2023/12/18 07:39:49;;;;;;;20.57;13.73;;;7.30;97.60;;;;;;10325119;28;20212;-62
2023/12/18 07:44:54;;;;;;;20.70;13.07;;;7.20;97.80;;;;;;10331172;28;20700;-64
2023/12/18 07:49:58;;;;;;;20.33;13.83;;;7.30;98.00;;;;;;10327720;28;20207;-67
2023/12/18 07:55:02;;;;;;;26.83;17.43;;;7.20;97.60;;;;;;10319007;28;20283;-68
2023/12/18 08:00:09;;;;;;;20.60;14.43;;;7.20;98.10;;;;;;10326463;28;20226;-67
2023/12/18 08:05:13;;;;;;;43.47;22.87;;;7.30;98.00;;;;;;10321033;28;20224;-68
2023/12/18 08:10:16;;;;;;;33.17;17.97;;;7.30;98.10;;;;;;10328465;28;20232;-67
2023/12/18 08:15:21;;;;;;;25.20;15.70;;;7.20;98.50;;;;;;10329250;28;20280;-66
2023/12/18 08:20:25;;;;;;;36.90;20.53;;;7.30;98.70;;;;;;10321521;28;20589;-64
2023/12/18 08:25:29;;;;;;;29.33;18.57;;;7.30;98.70;;;;;;10326159;28;20652;-65
2023/12/18 08:30:33;;;;;;;18.67;13.70;;;7.30;98.90;;;;;;10320411;28;20264;-65
2023/12/18 08:35:40;;;;;;;49.57;25.50;;;7.30;98.50;;;;;;10294035;28;20699;-63
2023/12/18 08:40:44;;;;;;;20.67;13.90;;;7.30;98.80;;;;;;10297976;28;20251;-64
2023/12/18 08:45:49;;;;;;;20.33;14.50;;;7.30;99.10;;;;;;10259879;28;20256;-66
2023/12/18 08:50:53;;;;;;;18.03;13.67;;;7.30;99.00;;;;;;10310817;28;20623;-66
2023/12/18 08:55:56;;;;;;;18.93;13.27;;;7.40;99.30;;;;;;10322826;28;20225;-68
2023/12/18 09:01:01;;;;;;;17.13;12.47;;;7.40;99.00;;;;;;10320017;28;20656;-66
2023/12/18 09:06:05;;;;;;;17.70;12.40;;;7.50;98.80;;;;;;10316993;28;20591;-67
2023/12/18 09:11:10;;;;;;;16.87;11.90;;;7.50;98.80;;;;;;10331352;28;20209;-67
2023/12/18 09:16:14;;;;;;;18.00;12.10;;;7.50;99.50;;;;;;10323675;28;20204;-67
2023/12/18 09:21:18;;;;;;;18.43;11.80;;;7.50;99.10;;;;;;10325956;28;20233;-67
2023/12/18 09:26:22;;;;;;;19.60;12.37;;;7.50;98.90;;;;;;10329837;28;20251;-67
2023/12/18 09:31:27;;;;;;;17.27;13.10;;;7.50;98.90;;;;;;10328676;28;20743;-67
2023/12/18 09:36:30;;;;;;;15.60;12.07;;;7.50;99.30;;;;;;10330456;28;20228;-68
2023/12/18 09:41:34;;;;;;;18.53;12.73;;;7.50;99.00;;;;;;10325878;28;20228;-67
2023/12/18 09:46:39;;;;;;;21.23;12.27;;;7.50;98.90;;;;;;10329822;28;20225;-67
2023/12/18 09:51:44;;;;;;;15.43;11.80;;;7.50;99.60;;;;;;10325150;28;20245;-67
2023/12/18 09:56:49;;;;;;;16.20;11.27;;;7.60;99.30;;;;;;10327408;28;20259;-67
2023/12/18 10:01:54;;;;;;;17.10;11.97;;;7.60;99.20;;;;;;10323882;28;20225;-67
2023/12/18 10:06:59;;;;;;;16.73;11.60;;;7.70;99.20;;;;;;10329902;28;20290;-67
2023/12/18 10:12:04;;;;;;;18.87;12.67;;;7.80;99.50;;;;;;10328983;28;20891;-67
2023/12/18 10:17:09;;;;;;;34.93;18.77;;;7.80;99.40;;;;;;10326091;28;20205;-66
2023/12/18 10:22:12;;;;;;;31.10;18.00;;;7.80;99.70;;;;;;10334760;28;20226;-67
2023/12/18 10:27:16;;;;;;;35.70;17.63;;;7.80;99.30;;;;;;10336651;28;20651;-67
2023/12/18 10:32:23;;;;;;;29.13;15.90;;;7.80;99.30;;;;;;10336179;28;20260;-66
2023/12/18 10:37:31;;;;;;;34.00;17.90;;;7.80;99.70;;;;;;10336857;28;20209;-66
2023/12/18 10:42:37;;;;;;;33.27;17.70;;;7.90;99.40;;;;;;10329507;28;20221;-66
2023/12/18 10:47:43;;;;;;;36.40;18.33;;;7.90;99.60;;;;;;10336634;28;20311;-66
2023/12/18 10:52:47;;;;;;;33.83;19.37;;;7.90;99.40;;;;;;10336290;28;20221;-64
2023/12/18 10:57:53;;;;;;;16.70;13.27;;;8.00;99.30;;;;;;10337136;28;20206;-67
2023/12/18 11:02:59;;;;;;;18.20;13.27;;;7.90;99.30;;;;;;10336135;28;20318;-67
2023/12/18 11:08:03;;;;;;;16.20;12.67;;;7.90;99.40;;;;;;10331913;28;20222;-67
2023/12/18 11:13:17;;;;;;;17.63;13.97;;;7.90;99.50;;;;;;10334415;28;20236;-67
2023/12/18 11:18:35;;;;;;;16.40;12.37;;;7.90;99.50;;;;;;10324082;28;20251;-66
2023/12/18 11:23:40;;;;;;;16.27;12.00;;;7.90;99.70;;;;;;10329902;28;20287;-66
2023/12/18 11:28:48;;;;;;;15.73;12.30;;;8.00;99.50;;;;;;10334607;28;20229;-68
2023/12/18 11:34:02;;;;;;;18.50;13.60;;;8.00;99.60;;;;;;10334775;28;20252;-68
2023/12/18 11:39:08;;;;;;;17.90;12.47;;;8.00;99.90;;;;;;10334732;28;20275;-67
2023/12/18 11:44:13;;;;;;;19.47;12.63;;;8.00;99.50;;;;;;10333856;28;20774;-68
2023/12/18 11:49:18;;;;;;;16.37;11.70;;;8.00;99.50;;;;;;10334251;28;20217;-69
2023/12/18 11:54:26;;;;;;;16.53;12.00;;;8.00;99.60;;;;;;10334470;28;20225;-69
2023/12/18 11:59:30;;;;;;;16.57;11.27;;;7.90;99.30;;;;;;10333415;28;20213;-69
2023/12/18 12:04:36;;;;;;;18.30;12.03;;;7.90;99.40;;;;;;10332211;28;20637;-68
2023/12/18 12:09:43;;;;;;;18.73;11.77;;;7.90;99.30;;;;;;10332414;28;20272;-67
2023/12/18 12:14:47;;;;;;;16.10;10.43;;;7.90;99.60;;;;;;10332164;28;20765;-67
2023/12/18 12:19:52;;;;;;;14.63;10.67;;;8.00;99.70;;;;;;10332504;28;20624;-68
2023/12/18 12:24:55;;;;;;;15.13;10.37;;;8.00;99.80;;;;;;10328597;28;20222;-67
2023/12/18 12:29:59;;;;;;;14.57;10.43;;;8.00;99.90;;;;;;10324562;28;20265;-68
2023/12/18 12:35:05;;;;;;;13.60;9.83;;;8.00;99.80;;;;;;10319384;28;20229;-68
2023/12/18 12:40:11;;;;;;;12.93;9.77;;;8.00;99.90;;;;;;10324802;28;20210;-68
2023/12/18 12:45:16;;;;;;;16.27;10.57;;;8.10;99.90;;;;;;10330195;28;20276;-70
2023/12/18 12:50:21;;;;;;;24.40;13.00;;;8.10;99.90;;;;;;10329957;28;20214;-67
2023/12/18 12:55:25;;;;;;;13.73;9.97;;;8.10;99.80;;;;;;10329830;28;20214;-67
2023/12/18 13:00:28;;;;;;;27.40;14.23;;;8.10;99.90;;;;;;10320228;28;20259;-66
2023/12/18 13:05:34;;;;;;;27.77;13.83;;;8.00;99.90;;;;;;10329689;28;20674;-67
2023/12/18 13:10:37;;;;;;;26.33;14.00;;;8.10;99.90;;;;;;10328246;28;20209;-66
2023/12/18 13:15:41;;;;;;;22.47;12.23;;;8.10;99.90;;;;;;10330133;28;20777;-67
2023/12/18 13:20:46;;;;;;;15.87;10.33;;;8.00;99.90;;;;;;10329471;28;20214;-67
2023/12/18 13:25:50;;;;;;;14.43;10.60;;;8.00;99.90;;;;;;10323231;28;20661;-67
2023/12/18 13:30:53;;;;;;;13.63;10.30;;;8.00;99.90;;;;;;10329150;28;20213;-68
2023/12/18 13:35:58;;;;;;;15.33;11.73;;;8.00;99.90;;;;;;10330379;28;20218;-67
2023/12/18 13:41:02;;;;;;;13.23;9.43;;;8.00;99.90;;;;;;10328653;28;20616;-67
2023/12/18 13:46:06;;;;;;;12.93;9.70;;;8.00;99.90;;;;;;10329439;28;20223;-67
2023/12/18 13:51:11;;;;;;;11.60;9.23;;;8.00;99.90;;;;;;10326613;28;20264;-67
2023/12/18 13:56:15;;;;;;;11.97;8.83;;;8.00;99.90;;;;;;10335002;28;20653;-68
2023/12/18 14:01:18;;;;;;;11.83;8.73;;;8.00;99.90;;;;;;10333108;28;20252;-68
2023/12/18 14:06:24;;;;;;;12.67;8.87;;;8.10;99.90;;;;;;10337598;28;20700;-68
2023/12/18 14:11:28;;;;;;;12.48;9.70;;;8.10;99.90;;;;;;10336729;28;20483;-67
2023/12/18 14:16:31;;;;;;;12.47;8.80;;;8.10;99.90;;;;;;10330667;28;20259;-68
2023/12/18 14:21:36;;;;;;;12.63;8.37;;;8.10;99.90;;;;;;10337544;28;20294;-68
2023/12/18 14:26:40;;;;;;;14.97;8.40;;;8.00;99.90;;;;;;10335933;28;20765;-68
2023/12/18 14:31:44;;;;;;;11.20;8.70;;;8.00;99.90;;;;;;10337099;28;20236;-68
2023/12/18 14:36:49;;;;;;;11.67;8.30;;;7.90;99.90;;;;;;10337077;28;20652;-67
2023/12/18 14:41:53;;;;;;;11.03;7.90;;;7.90;99.90;;;;;;10336598;28;20284;-68
2023/12/18 14:46:57;;;;;;;10.37;7.97;;;8.00;99.90;;;;;;10330870;28;20229;-68
2023/12/18 14:52:02;;;;;;;9.93;7.63;;;8.00;99.90;;;;;;10335746;28;20229;-68
2023/12/18 14:57:06;;;;;;;10.63;8.07;;;8.00;99.90;;;;;;10333448;28;20193;-67
2023/12/18 15:02:11;;;;;;;9.03;6.93;;;8.00;99.90;;;;;;10318224;28;20297;-68
2023/12/18 15:07:16;;;;;;;9.57;6.73;;;8.10;99.90;;;;;;10317288;28;20225;-65
2023/12/18 15:12:20;;;;;;;9.57;6.23;;;8.10;99.90;;;;;;10328230;28;20229;-66
2023/12/18 15:17:23;;;;;;;11.18;8.38;;;8.10;99.90;;;;;;10320727;28;20483;-67
2023/12/18 15:22:28;;;;;;;10.17;7.37;;;8.10;99.90;;;;;;10321443;28;20292;-62
2023/12/18 15:27:33;;;;;;;8.97;6.93;;;8.20;99.90;;;;;;10328686;28;20233;-67
2023/12/18 15:32:38;;;;;;;8.43;6.80;;;8.30;99.90;;;;;;10328521;28;20264;-67
2023/12/18 15:37:43;;;;;;;8.57;7.03;;;8.40;99.90;;;;;;10326738;28;20206;-69
2023/12/18 15:42:46;;;;;;;9.27;8.20;;;8.30;99.90;;;;;;10327964;28;20892;-69
2023/12/18 15:47:50;;;;;;;9.87;7.30;;;8.40;99.90;;;;;;10327329;28;20307;-69
2023/12/18 15:52:55;;;;;;;8.67;6.90;;;8.50;99.90;;;;;;10324529;28;20225;-68
2023/12/18 15:57:59;;;;;;;9.33;6.47;;;8.50;99.90;;;;;;10323979;28;20590;-67
2023/12/18 16:03:03;;;;;;;8.83;6.97;;;8.40;99.90;;;;;;10330758;28;20221;-67
2023/12/18 16:08:08;;;;;;;10.97;7.77;;;8.40;99.90;;;;;;10316355;28;20248;-67
2023/12/18 16:13:13;;;;;;;9.33;7.50;;;8.40;99.90;;;;;;10316656;28;20279;-67
2023/12/18 16:18:17;;;;;;;9.63;7.40;;;8.40;99.90;;;;;;10330138;28;20248;-67
2023/12/18 16:23:22;;;;;;;9.00;7.03;;;8.30;99.90;;;;;;10329618;28;20205;-67
2023/12/18 16:28:26;;;;;;;10.03;7.80;;;8.40;99.90;;;;;;10328118;28;20291;-66
2023/12/18 16:33:29;;;;;;;10.30;7.40;;;8.40;99.90;;;;;;10322374;28;20221;-67
2023/12/18 16:38:36;;;;;;;9.83;7.47;;;8.30;99.90;;;;;;10327463;28;20216;-67
2023/12/18 16:43:39;;;;;;;9.80;7.70;;;8.20;99.90;;;;;;10323940;28;20252;-67
2023/12/18 16:48:43;;;;;;;9.87;7.43;;;8.20;99.90;;;;;;10326883;28;20225;-67
2023/12/18 16:53:48;;;;;;;8.87;6.37;;;8.30;99.90;;;;;;10320053;28;20233;-67
2023/12/18 17:01:58;;;;;;;8.20;6.63;;;8.20;99.90;;;;;;10608472;27;20499;-67
2023/12/18 17:07:02;;;;;;;7.47;6.17;;;8.20;99.90;;;;;;10569952;28;20209;-69
2023/12/18 17:12:06;;;;;;;8.23;6.40;;;8.20;99.90;;;;;;10563903;28;20286;-65
2023/12/18 17:17:10;;;;;;;8.43;6.53;;;8.10;99.90;;;;;;10559357;28;20259;-66
2023/12/18 17:22:14;;;;;;;8.20;7.00;;;8.10;99.90;;;;;;10571790;27;20224;-64
2023/12/18 17:27:18;;;;;;;8.70;6.93;;;8.10;99.90;;;;;;10564060;28;20223;-66
2023/12/18 17:32:22;;;;;;;8.73;7.13;;;8.10;99.90;;;;;;10562431;27;20216;-66
2023/12/18 17:37:33;;;;;;;8.40;7.03;;;8.10;99.90;;;;;;10565214;28;20699;-65
2023/12/18 17:42:36;;;;;;;9.63;7.70;;;8.10;99.90;;;;;;10562606;28;20225;-65
2023/12/18 17:47:41;;;;;;;9.13;7.07;;;8.00;99.90;;;;;;10567966;28;20205;-65
2023/12/18 17:52:47;;;;;;;9.77;7.57;;;8.00;99.90;;;;;;10560174;28;20229;-64
2023/12/18 17:57:52;;;;;;;8.00;6.77;;;8.00;99.90;;;;;;10564478;28;21469;-64
2023/12/18 18:02:57;;;;;;;8.70;7.77;;;8.00;99.90;;;;;;10551332;28;20228;-65
2023/12/18 18:08:01;;;;;;;7.57;6.77;;;8.00;99.90;;;;;;10564105;28;20261;-64
2023/12/18 18:13:04;;;;;;;7.27;6.43;;;8.00;99.90;;;;;;10535662;28;20570;-67
2023/12/18 18:18:09;;;;;;;8.83;7.30;;;7.90;99.90;;;;;;10533492;28;20237;-66
2023/12/18 18:23:13;;;;;;;8.40;7.20;;;7.80;99.90;;;;;;10536851;28;20271;-66
2023/12/18 18:28:16;;;;;;;10.03;7.83;;;7.70;99.90;;;;;;10538607;28;20606;-66
2023/12/18 18:33:21;;;;;;;8.10;7.20;;;7.70;99.90;;;;;;10535607;28;20270;-66
2023/12/18 18:38:25;;;;;;;8.33;6.93;;;7.70;99.90;;;;;;10537722;28;20225;-67
2023/12/18 18:43:29;;;;;;;8.47;7.20;;;7.70;99.90;;;;;;10536061;28;20225;-67
2023/12/18 18:48:34;;;;;;;8.13;7.20;;;7.70;99.90;;;;;;10537030;28;20198;-67
2023/12/18 18:53:39;;;;;;;9.17;7.33;;;7.70;99.90;;;;;;10538017;28;20846;-65
2023/12/18 18:58:43;;;;;;;8.70;7.00;;;7.70;99.90;;;;;;10538830;28;20222;-67
2023/12/18 19:04:10;;;;;;;12.88;11.77;;;7.70;99.90;;;;;;10604208;27;20426;-64
2023/12/18 19:09:15;;;;;;;13.13;8.87;;;7.80;99.40;;;;;;10569461;28;20209;-65
2023/12/18 19:14:18;;;;;;;11.03;8.40;;;7.80;99.90;;;;;;10555428;28;20229;-64
2023/12/18 19:19:23;;;;;;;10.80;9.80;;;7.70;99.90;;;;;;10568721;28;20247;-63
2023/12/18 19:24:27;;;;;;;10.03;8.03;;;7.70;99.80;;;;;;10561835;28;20229;-64
2023/12/18 19:29:31;;;;;;;8.57;6.80;;;7.70;99.50;;;;;;10566639;28;20230;-66
2023/12/18 19:34:36;;;;;;;9.30;7.63;;;7.50;99.50;;;;;;10564170;28;20641;-64
2023/12/18 19:39:39;;;;;;;7.53;6.73;;;7.50;99.90;;;;;;10574244;27;20238;-65
2023/12/18 19:44:45;;;;;;;8.83;7.27;;;7.50;99.80;;;;;;10564689;28;20224;-64
2023/12/18 19:49:50;;;;;;;10.07;8.53;;;7.50;99.90;;;;;;10565340;28;20274;-65
2023/12/18 19:54:55;;;;;;;10.87;8.37;;;7.40;99.70;;;;;;10559435;28;20208;-64
2023/12/18 19:59:59;;;;;;;10.33;8.40;;;7.40;99.60;;;;;;10558031;28;20224;-63
2023/12/18 20:05:04;;;;;;;11.60;8.97;;;7.40;99.40;;;;;;10553011;28;20212;-66
2023/12/18 20:10:10;;;;;;;13.93;10.23;;;7.40;99.70;;;;;;10568659;27;20640;-63
2023/12/18 20:15:14;;;;;;;13.20;9.90;;;7.30;99.40;;;;;;10543320;28;20216;-64
2023/12/18 20:20:19;;;;;;;11.97;9.70;;;7.30;99.90;;;;;;10532428;28;20221;-64
2023/12/18 20:25:23;;;;;;;11.43;8.90;;;7.30;99.90;;;;;;10532050;28;20229;-64
2023/12/18 20:30:26;;;;;;;11.93;9.03;;;7.30;99.90;;;;;;10535109;28;20720;-64
2023/12/18 20:35:31;;;;;;;12.30;8.80;;;7.30;99.90;;;;;;10538837;28;20219;-64
2023/12/18 20:40:35;;;;;;;13.67;9.40;;;7.40;99.90;;;;;;10527663;28;20218;-64
2023/12/18 20:45:39;;;;;;;11.67;9.47;;;7.30;99.60;;;;;;10540471;28;20296;-64
2023/12/18 20:50:43;;;;;;;12.53;10.20;;;7.30;99.90;;;;;;10535402;28;20197;-64
2023/12/18 20:55:47;;;;;;;15.53;10.80;;;7.30;99.90;;;;;;10535057;28;20326;-65
2023/12/18 21:00:51;;;;;;;15.57;10.90;;;7.30;99.70;;;;;;10531806;28;20225;-64
2023/12/18 21:05:56;;;;;;;20.60;14.00;;;7.20;99.90;;;;;;10523293;28;20286;-64
2023/12/18 21:11:00;;;;;;;17.37;13.37;;;7.20;99.90;;;;;;10524237;28;20732;-65
2023/12/18 21:16:03;;;;;;;14.93;10.37;;;7.20;99.90;;;;;;10536583;28;20279;-64
2023/12/18 21:21:09;;;;;;;15.83;11.63;;;7.20;99.90;;;;;;10515578;28;20246;-64
2023/12/18 21:26:15;;;;;;;15.53;12.00;;;7.20;99.60;;;;;;10532250;28;20225;-64
2023/12/18 21:31:19;;;;;;;15.47;11.50;;;7.10;99.90;;;;;;10537546;28;20597;-65
2023/12/18 21:36:24;;;;;;;16.27;11.83;;;7.10;99.90;;;;;;10527669;28;20201;-65
2023/12/18 21:41:28;;;;;;;14.97;11.50;;;7.00;99.70;;;;;;10526929;28;20226;-64
2023/12/18 21:46:31;;;;;;;18.80;12.40;;;7.00;99.90;;;;;;10518450;28;20209;-64
2023/12/18 21:51:36;;;;;;;16.60;11.93;;;7.10;99.90;;;;;;10529758;28;20216;-65
2023/12/18 21:56:50;;;;;;;17.27;11.80;;;7.10;99.90;;;;;;10510972;28;20259;-64
2023/12/18 22:01:53;;;;;;;15.83;12.00;;;7.10;99.90;;;;;;10523561;28;20224;-64
2023/12/18 22:06:58;;;;;;;17.63;11.30;;;7.10;99.90;;;;;;10523615;28;20742;-65
2023/12/18 22:12:02;;;;;;;18.10;12.37;;;7.20;99.90;;;;;;10533958;28;20269;-68
2023/12/18 22:17:06;;;;;;;15.53;11.30;;;7.10;99.90;;;;;;10530223;28;20193;-65
2023/12/18 22:22:11;;;;;;;13.97;11.57;;;7.10;99.90;;;;;;10534225;28;20245;-65
2023/12/18 22:27:17;;;;;;;16.97;11.27;;;7.00;99.90;;;;;;10535493;28;20197;-65
2023/12/18 22:32:21;;;;;;;16.03;11.33;;;7.00;99.90;;;;;;10524046;28;20218;-64
2023/12/18 22:37:26;;;;;;;16.20;11.63;;;7.00;99.90;;;;;;10536206;28;20210;-65
2023/12/18 22:42:29;;;;;;;15.20;10.60;;;7.00;99.90;;;;;;10529176;28;20286;-64
2023/12/18 22:47:35;;;;;;;13.10;10.73;;;7.10;99.90;;;;;;10534408;28;20208;-65
2023/12/18 22:52:40;;;;;;;13.77;10.43;;;7.00;99.90;;;;;;10467558;28;20225;-64
2023/12/18 22:57:44;;;;;;;15.13;11.10;;;7.10;99.90;;;;;;10531493;28;20198;-64
2023/12/18 23:02:48;;;;;;;13.57;10.60;;;7.10;99.90;;;;;;10527450;28;20704;-63
2023/12/18 23:07:55;;;;;;;15.23;10.23;;;7.10;99.90;;;;;;10536976;28;20230;-64
2023/12/18 23:12:59;;;;;;;15.03;11.37;;;7.00;99.90;;;;;;10507780;28;20242;-64
2023/12/18 23:18:03;;;;;;;15.50;11.97;;;7.00;99.90;;;;;;10531367;28;20571;-64
2023/12/18 23:23:08;;;;;;;15.40;12.17;;;7.00;99.90;;;;;;10533667;28;20696;-63
2023/12/18 23:28:12;;;;;;;17.57;12.87;;;7.10;99.90;;;;;;10525951;28;20218;-62
2023/12/18 23:33:16;;;;;;;18.53;12.97;;;7.00;99.90;;;;;;10530409;28;20264;-63
2023/12/18 23:38:31;;;;;;;15.93;13.33;;;7.00;99.90;;;;;;10478184;28;20678;-67
2023/12/18 23:43:35;;;;;;;20.07;14.00;;;7.00;99.90;;;;;;10527616;28;20217;-66
2023/12/18 23:48:38;;;;;;;17.70;14.33;;;7.00;99.90;;;;;;10497895;28;20253;-65
2023/12/18 23:53:44;;;;;;;16.83;13.60;;;6.90;99.90;;;;;;10501403;28;20553;-68
2023/12/18 23:58:47;;;;;;;16.00;14.30;;;6.90;99.90;;;;;;10469011;28;20717;-68
